sensor_id;sensor_type;location;lat;lon;timestamp;P1;durP1;ratioP1;P2;durP2;ratioP2
40781;SDS011;26493;51.938;7.626;2023-07-13T00:01:42;22.42;;;7.82;;
40781;SDS011;26493;51.938;7.626;2023-07-13T00:04:08;21.05;;;8.18;;
40781;SDS011;26493;51.938;7.626;2023-07-13T00:06:34;18.52;;;8.63;;
40781;SDS011;26493;51.938;7.626;2023-07-13T00:09:01;19.50;;;7.82;;
40781;SDS011;26493;51.938;7.626;2023-07-13T00:11:27;18.83;;;7.90;;
40781;SDS011;26493;51.938;7.626;2023-07-13T00:13:53;19.15;;;8.27;;
40781;SDS011;26493;51.938;7.626;2023-07-13T00:16:19;22.30;;;9.57;;
40781;SDS011;26493;51.938;7.626;2023-07-13T00:18:46;25.67;;;9.02;;
40781;SDS011;26493;51.938;7.626;2023-07-13T00:21:12;22.92;;;9.25;;
40781;SDS011;26493;51.938;7.626;2023-07-13T00:23:40;21.10;;;8.82;;
40781;SDS011;26493;51.938;7.626;2023-07-13T00:26:07;19.00;;;7.40;;
40781;SDS011;26493;51.938;7.626;2023-07-13T00:28:34;18.67;;;7.95;;
40781;SDS011;26493;51.938;7.626;2023-07-13T00:31:00;18.00;;;7.30;;
40781;SDS011;26493;51.938;7.626;2023-07-13T00:33:27;18.20;;;7.75;;
40781;SDS011;26493;51.938;7.626;2023-07-13T00:35:54;16.77;;;8.15;;
40781;SDS011;26493;51.938;7.626;2023-07-13T00:38:20;17.90;;;7.57;;
40781;SDS011;26493;51.938;7.626;2023-07-13T00:40:46;19.35;;;8.13;;
40781;SDS011;26493;51.938;7.626;2023-07-13T00:43:19;16.63;;;8.57;;
40781;SDS011;26493;51.938;7.626;2023-07-13T00:48:13;20.02;;;8.63;;
40781;SDS011;26493;51.938;7.626;2023-07-13T00:50:39;18.95;;;8.30;;
40781;SDS011;26493;51.938;7.626;2023-07-13T00:53:06;17.92;;;7.85;;
40781;SDS011;26493;51.938;7.626;2023-07-13T00:55:33;16.38;;;7.78;;
40781;SDS011;26493;51.938;7.626;2023-07-13T00:57:59;17.27;;;8.82;;
40781;SDS011;26493;51.938;7.626;2023-07-13T01:00:27;20.58;;;8.35;;
40781;SDS011;26493;51.938;7.626;2023-07-13T01:02:54;18.15;;;7.97;;
40781;SDS011;26493;51.938;7.626;2023-07-13T01:05:21;17.10;;;7.53;;
40781;SDS011;26493;51.938;7.626;2023-07-13T01:07:47;18.70;;;8.13;;
40781;SDS011;26493;51.938;7.626;2023-07-13T01:10:15;20.02;;;8.27;;
40781;SDS011;26493;51.938;7.626;2023-07-13T01:12:41;16.48;;;7.85;;
40781;SDS011;26493;51.938;7.626;2023-07-13T01:17:52;16.35;;;7.72;;
40781;SDS011;26493;51.938;7.626;2023-07-13T01:20:18;17.90;;;8.25;;
40781;SDS011;26493;51.938;7.626;2023-07-13T01:22:44;17.95;;;7.88;;
40781;SDS011;26493;51.938;7.626;2023-07-13T01:25:10;23.35;;;7.60;;
40781;SDS011;26493;51.938;7.626;2023-07-13T01:27:36;20.92;;;7.60;;
40781;SDS011;26493;51.938;7.626;2023-07-13T01:30:02;22.00;;;7.68;;
40781;SDS011;26493;51.938;7.626;2023-07-13T01:32:29;20.15;;;7.82;;
40781;SDS011;26493;51.938;7.626;2023-07-13T01:34:56;18.90;;;7.28;;
40781;SDS011;26493;51.938;7.626;2023-07-13T01:37:23;23.85;;;8.32;;
40781;SDS011;26493;51.938;7.626;2023-07-13T01:39:49;18.40;;;7.85;;
40781;SDS011;26493;51.938;7.626;2023-07-13T01:42:15;17.40;;;8.18;;
40781;SDS011;26493;51.938;7.626;2023-07-13T01:44:41;21.30;;;7.45;;
40781;SDS011;26493;51.938;7.626;2023-07-13T01:47:08;17.60;;;8.00;;
40781;SDS011;26493;51.938;7.626;2023-07-13T01:49:34;16.85;;;7.90;;
40781;SDS011;26493;51.938;7.626;2023-07-13T01:52:00;16.98;;;8.07;;
40781;SDS011;26493;51.938;7.626;2023-07-13T01:54:26;19.63;;;8.23;;
40781;SDS011;26493;51.938;7.626;2023-07-13T01:56:52;20.45;;;8.23;;
40781;SDS011;26493;51.938;7.626;2023-07-13T01:59:18;19.00;;;8.60;;
40781;SDS011;26493;51.938;7.626;2023-07-13T02:01:44;20.33;;;7.85;;
40781;SDS011;26493;51.938;7.626;2023-07-13T02:04:10;20.38;;;8.18;;
40781;SDS011;26493;51.938;7.626;2023-07-13T02:06:36;20.67;;;7.90;;
40781;SDS011;26493;51.938;7.626;2023-07-13T02:09:02;17.25;;;7.63;;
40781;SDS011;26493;51.938;7.626;2023-07-13T02:11:28;19.00;;;8.63;;
40781;SDS011;26493;51.938;7.626;2023-07-13T02:13:58;19.70;;;7.35;;
40781;SDS011;26493;51.938;7.626;2023-07-13T02:16:24;21.50;;;8.13;;
40781;SDS011;26493;51.938;7.626;2023-07-13T02:18:50;20.17;;;8.73;;
40781;SDS011;26493;51.938;7.626;2023-07-13T02:21:17;19.63;;;8.07;;
40781;SDS011;26493;51.938;7.626;2023-07-13T02:23:43;18.92;;;8.45;;
40781;SDS011;26493;51.938;7.626;2023-07-13T02:26:09;18.42;;;8.30;;
40781;SDS011;26493;51.938;7.626;2023-07-13T02:28:35;22.42;;;8.77;;
40781;SDS011;26493;51.938;7.626;2023-07-13T02:31:08;19.63;;;8.90;;
40781;SDS011;26493;51.938;7.626;2023-07-13T02:33:35;18.98;;;7.53;;
40781;SDS011;26493;51.938;7.626;2023-07-13T02:36:01;18.38;;;7.68;;
40781;SDS011;26493;51.938;7.626;2023-07-13T02:38:27;19.45;;;7.85;;
40781;SDS011;26493;51.938;7.626;2023-07-13T02:40:53;16.95;;;7.45;;
40781;SDS011;26493;51.938;7.626;2023-07-13T02:43:19;18.15;;;7.55;;
40781;SDS011;26493;51.938;7.626;2023-07-13T02:45:45;18.92;;;7.40;;
40781;SDS011;26493;51.938;7.626;2023-07-13T02:48:13;16.88;;;6.90;;
40781;SDS011;26493;51.938;7.626;2023-07-13T02:50:39;22.95;;;7.85;;
40781;SDS011;26493;51.938;7.626;2023-07-13T02:53:05;16.65;;;7.50;;
40781;SDS011;26493;51.938;7.626;2023-07-13T02:55:31;17.20;;;7.15;;
40781;SDS011;26493;51.938;7.626;2023-07-13T02:57:57;18.33;;;7.18;;
40781;SDS011;26493;51.938;7.626;2023-07-13T03:00:23;19.02;;;7.72;;
40781;SDS011;26493;51.938;7.626;2023-07-13T03:02:49;19.35;;;6.85;;
40781;SDS011;26493;51.938;7.626;2023-07-13T03:05:15;17.48;;;7.07;;
40781;SDS011;26493;51.938;7.626;2023-07-13T03:07:42;19.08;;;7.30;;
40781;SDS011;26493;51.938;7.626;2023-07-13T03:10:08;18.52;;;6.75;;
40781;SDS011;26493;51.938;7.626;2023-07-13T03:12:34;19.30;;;6.63;;
40781;SDS011;26493;51.938;7.626;2023-07-13T03:15:00;20.45;;;7.10;;
40781;SDS011;26493;51.938;7.626;2023-07-13T03:17:26;18.55;;;6.80;;
40781;SDS011;26493;51.938;7.626;2023-07-13T03:19:52;18.17;;;6.50;;
40781;SDS011;26493;51.938;7.626;2023-07-13T03:22:19;16.25;;;6.82;;
40781;SDS011;26493;51.938;7.626;2023-07-13T03:24:45;16.13;;;6.47;;
40781;SDS011;26493;51.938;7.626;2023-07-13T03:27:11;20.50;;;6.97;;
40781;SDS011;26493;51.938;7.626;2023-07-13T03:29:37;19.55;;;6.75;;
40781;SDS011;26493;51.938;7.626;2023-07-13T03:32:03;17.05;;;6.22;;
40781;SDS011;26493;51.938;7.626;2023-07-13T03:34:30;15.15;;;6.40;;
40781;SDS011;26493;51.938;7.626;2023-07-13T03:36:56;17.17;;;6.60;;
40781;SDS011;26493;51.938;7.626;2023-07-13T03:39:22;16.27;;;6.80;;
40781;SDS011;26493;51.938;7.626;2023-07-13T03:41:48;17.67;;;6.50;;
40781;SDS011;26493;51.938;7.626;2023-07-13T03:44:16;18.77;;;6.65;;
40781;SDS011;26493;51.938;7.626;2023-07-13T03:46:42;18.73;;;6.70;;
40781;SDS011;26493;51.938;7.626;2023-07-13T03:49:08;16.38;;;7.20;;
40781;SDS011;26493;51.938;7.626;2023-07-13T03:51:35;17.60;;;6.47;;
40781;SDS011;26493;51.938;7.626;2023-07-13T03:54:01;22.50;;;7.05;;
40781;SDS011;26493;51.938;7.626;2023-07-13T03:56:27;18.33;;;6.50;;
40781;SDS011;26493;51.938;7.626;2023-07-13T03:58:53;15.95;;;6.68;;
40781;SDS011;26493;51.938;7.626;2023-07-13T04:01:20;15.75;;;7.18;;
40781;SDS011;26493;51.938;7.626;2023-07-13T04:03:46;17.20;;;7.07;;
40781;SDS011;26493;51.938;7.626;2023-07-13T04:06:16;21.42;;;7.95;;
40781;SDS011;26493;51.938;7.626;2023-07-13T04:08:46;18.50;;;6.93;;
40781;SDS011;26493;51.938;7.626;2023-07-13T04:11:12;18.95;;;6.63;;
40781;SDS011;26493;51.938;7.626;2023-07-13T04:13:38;17.73;;;6.80;;
40781;SDS011;26493;51.938;7.626;2023-07-13T04:16:04;15.15;;;6.55;;
40781;SDS011;26493;51.938;7.626;2023-07-13T04:18:30;18.30;;;6.88;;
40781;SDS011;26493;51.938;7.626;2023-07-13T04:20:56;17.60;;;6.82;;
40781;SDS011;26493;51.938;7.626;2023-07-13T04:23:22;21.65;;;7.30;;
40781;SDS011;26493;51.938;7.626;2023-07-13T04:25:49;15.68;;;6.50;;
40781;SDS011;26493;51.938;7.626;2023-07-13T04:28:17;18.85;;;7.60;;
40781;SDS011;26493;51.938;7.626;2023-07-13T04:30:43;22.02;;;6.80;;
40781;SDS011;26493;51.938;7.626;2023-07-13T04:33:09;17.52;;;7.25;;
40781;SDS011;26493;51.938;7.626;2023-07-13T04:35:35;18.55;;;7.18;;
40781;SDS011;26493;51.938;7.626;2023-07-13T04:38:02;19.27;;;7.38;;
40781;SDS011;26493;51.938;7.626;2023-07-13T04:40:28;17.65;;;6.97;;
40781;SDS011;26493;51.938;7.626;2023-07-13T04:42:55;16.08;;;6.30;;
40781;SDS011;26493;51.938;7.626;2023-07-13T04:45:21;17.60;;;7.00;;
40781;SDS011;26493;51.938;7.626;2023-07-13T04:47:49;16.73;;;6.70;;
40781;SDS011;26493;51.938;7.626;2023-07-13T04:50:15;15.90;;;6.43;;
40781;SDS011;26493;51.938;7.626;2023-07-13T04:52:45;15.57;;;6.30;;
40781;SDS011;26493;51.938;7.626;2023-07-13T04:55:11;18.15;;;7.25;;
40781;SDS011;26493;51.938;7.626;2023-07-13T04:57:37;18.77;;;6.47;;
40781;SDS011;26493;51.938;7.626;2023-07-13T05:00:04;19.23;;;7.97;;
40781;SDS011;26493;51.938;7.626;2023-07-13T05:02:30;19.08;;;7.47;;
40781;SDS011;26493;51.938;7.626;2023-07-13T05:04:57;20.52;;;6.93;;
40781;SDS011;26493;51.938;7.626;2023-07-13T05:07:24;16.05;;;6.55;;
40781;SDS011;26493;51.938;7.626;2023-07-13T05:09:50;19.58;;;7.15;;
40781;SDS011;26493;51.938;7.626;2023-07-13T05:12:16;16.90;;;6.90;;
40781;SDS011;26493;51.938;7.626;2023-07-13T05:14:42;18.13;;;7.10;;
40781;SDS011;26493;51.938;7.626;2023-07-13T05:17:08;20.55;;;7.75;;
40781;SDS011;26493;51.938;7.626;2023-07-13T05:19:34;17.80;;;6.80;;
40781;SDS011;26493;51.938;7.626;2023-07-13T05:22:00;18.40;;;7.10;;
40781;SDS011;26493;51.938;7.626;2023-07-13T05:24:27;19.23;;;6.63;;
40781;SDS011;26493;51.938;7.626;2023-07-13T05:26:54;18.05;;;6.72;;
40781;SDS011;26493;51.938;7.626;2023-07-13T05:29:20;21.35;;;7.70;;
40781;SDS011;26493;51.938;7.626;2023-07-13T05:31:46;18.23;;;6.80;;
40781;SDS011;26493;51.938;7.626;2023-07-13T05:34:12;16.73;;;7.38;;
40781;SDS011;26493;51.938;7.626;2023-07-13T05:36:38;20.65;;;7.60;;
40781;SDS011;26493;51.938;7.626;2023-07-13T05:39:04;18.85;;;7.03;;
40781;SDS011;26493;51.938;7.626;2023-07-13T05:41:30;18.25;;;7.00;;
40781;SDS011;26493;51.938;7.626;2023-07-13T05:43:56;17.05;;;7.05;;
40781;SDS011;26493;51.938;7.626;2023-07-13T05:46:22;19.45;;;7.05;;
40781;SDS011;26493;51.938;7.626;2023-07-13T05:48:48;21.77;;;7.90;;
40781;SDS011;26493;51.938;7.626;2023-07-13T05:51:14;19.48;;;7.28;;
40781;SDS011;26493;51.938;7.626;2023-07-13T05:53:40;19.48;;;7.22;;
40781;SDS011;26493;51.938;7.626;2023-07-13T05:56:06;19.88;;;7.10;;
40781;SDS011;26493;51.938;7.626;2023-07-13T05:58:32;19.42;;;7.40;;
40781;SDS011;26493;51.938;7.626;2023-07-13T06:01:04;19.52;;;8.40;;
40781;SDS011;26493;51.938;7.626;2023-07-13T06:03:30;19.15;;;7.30;;
40781;SDS011;26493;51.938;7.626;2023-07-13T06:05:56;21.48;;;7.05;;
40781;SDS011;26493;51.938;7.626;2023-07-13T06:08:25;19.52;;;7.82;;
40781;SDS011;26493;51.938;7.626;2023-07-13T06:10:51;19.92;;;8.45;;
40781;SDS011;26493;51.938;7.626;2023-07-13T06:13:17;17.75;;;7.25;;
40781;SDS011;26493;51.938;7.626;2023-07-13T06:15:47;21.77;;;8.02;;
40781;SDS011;26493;51.938;7.626;2023-07-13T06:18:13;16.45;;;7.50;;
40781;SDS011;26493;51.938;7.626;2023-07-13T06:20:39;21.00;;;8.07;;
40781;SDS011;26493;51.938;7.626;2023-07-13T06:23:05;16.80;;;7.88;;
40781;SDS011;26493;51.938;7.626;2023-07-13T06:25:31;22.85;;;7.80;;
40781;SDS011;26493;51.938;7.626;2023-07-13T06:27:57;21.35;;;7.70;;
40781;SDS011;26493;51.938;7.626;2023-07-13T06:30:23;20.67;;;7.22;;
40781;SDS011;26493;51.938;7.626;2023-07-13T06:32:49;17.48;;;7.57;;
40781;SDS011;26493;51.938;7.626;2023-07-13T06:35:15;19.00;;;8.00;;
40781;SDS011;26493;51.938;7.626;2023-07-13T06:37:41;17.85;;;7.47;;
40781;SDS011;26493;51.938;7.626;2023-07-13T06:40:07;20.83;;;7.50;;
40781;SDS011;26493;51.938;7.626;2023-07-13T06:42:33;19.08;;;8.18;;
40781;SDS011;26493;51.938;7.626;2023-07-13T06:44:59;17.73;;;7.60;;
40781;SDS011;26493;51.938;7.626;2023-07-13T06:47:26;22.27;;;7.78;;
40781;SDS011;26493;51.938;7.626;2023-07-13T06:49:52;22.30;;;7.82;;
40781;SDS011;26493;51.938;7.626;2023-07-13T06:52:18;20.85;;;8.35;;
40781;SDS011;26493;51.938;7.626;2023-07-13T06:54:44;20.10;;;7.00;;
40781;SDS011;26493;51.938;7.626;2023-07-13T06:57:10;15.30;;;6.65;;
40781;SDS011;26493;51.938;7.626;2023-07-13T06:59:36;23.27;;;8.02;;
40781;SDS011;26493;51.938;7.626;2023-07-13T07:02:02;18.10;;;7.57;;
40781;SDS011;26493;51.938;7.626;2023-07-13T07:04:28;19.80;;;7.25;;
40781;SDS011;26493;51.938;7.626;2023-07-13T07:06:54;21.05;;;7.88;;
40781;SDS011;26493;51.938;7.626;2023-07-13T07:09:20;19.33;;;6.82;;
40781;SDS011;26493;51.938;7.626;2023-07-13T07:11:46;19.45;;;7.80;;
40781;SDS011;26493;51.938;7.626;2023-07-13T07:14:12;19.83;;;6.88;;
40781;SDS011;26493;51.938;7.626;2023-07-13T07:16:38;19.08;;;6.60;;
40781;SDS011;26493;51.938;7.626;2023-07-13T07:19:04;21.83;;;7.40;;
40781;SDS011;26493;51.938;7.626;2023-07-13T07:21:30;20.75;;;6.97;;
40781;SDS011;26493;51.938;7.626;2023-07-13T07:23:56;22.60;;;7.43;;
40781;SDS011;26493;51.938;7.626;2023-07-13T07:26:22;21.70;;;7.20;;
40781;SDS011;26493;51.938;7.626;2023-07-13T07:28:48;19.45;;;7.07;;
40781;SDS011;26493;51.938;7.626;2023-07-13T07:31:14;21.27;;;7.85;;
40781;SDS011;26493;51.938;7.626;2023-07-13T07:33:40;21.23;;;7.93;;
40781;SDS011;26493;51.938;7.626;2023-07-13T07:36:06;18.17;;;7.28;;
40781;SDS011;26493;51.938;7.626;2023-07-13T07:38:32;18.75;;;7.18;;
40781;SDS011;26493;51.938;7.626;2023-07-13T07:41:00;17.85;;;7.93;;
40781;SDS011;26493;51.938;7.626;2023-07-13T07:43:26;17.48;;;8.02;;
40781;SDS011;26493;51.938;7.626;2023-07-13T07:45:52;20.92;;;8.02;;
40781;SDS011;26493;51.938;7.626;2023-07-13T07:48:18;19.67;;;8.10;;
40781;SDS011;26493;51.938;7.626;2023-07-13T07:50:44;21.70;;;8.45;;
40781;SDS011;26493;51.938;7.626;2023-07-13T07:53:10;17.48;;;7.43;;
40781;SDS011;26493;51.938;7.626;2023-07-13T07:55:37;17.90;;;7.80;;
40781;SDS011;26493;51.938;7.626;2023-07-13T07:58:04;19.05;;;8.38;;
40781;SDS011;26493;51.938;7.626;2023-07-13T08:00:30;20.15;;;9.00;;
40781;SDS011;26493;51.938;7.626;2023-07-13T08:02:57;19.80;;;9.00;;
40781;SDS011;26493;51.938;7.626;2023-07-13T08:05:24;20.35;;;8.45;;
40781;SDS011;26493;51.938;7.626;2023-07-13T08:07:50;18.85;;;8.48;;
40781;SDS011;26493;51.938;7.626;2023-07-13T08:10:16;19.77;;;9.23;;
40781;SDS011;26493;51.938;7.626;2023-07-13T08:12:42;17.67;;;8.45;;
40781;SDS011;26493;51.938;7.626;2023-07-13T08:15:12;18.73;;;9.63;;
40781;SDS011;26493;51.938;7.626;2023-07-13T08:17:38;22.08;;;9.30;;
40781;SDS011;26493;51.938;7.626;2023-07-13T08:20:04;21.35;;;9.30;;
40781;SDS011;26493;51.938;7.626;2023-07-13T08:22:30;22.85;;;10.80;;
40781;SDS011;26493;51.938;7.626;2023-07-13T08:24:56;19.02;;;9.13;;
40781;SDS011;26493;51.938;7.626;2023-07-13T08:27:23;22.85;;;9.23;;
40781;SDS011;26493;51.938;7.626;2023-07-13T08:29:49;21.40;;;9.77;;
40781;SDS011;26493;51.938;7.626;2023-07-13T08:32:15;20.60;;;9.05;;
40781;SDS011;26493;51.938;7.626;2023-07-13T08:34:42;17.77;;;9.70;;
40781;SDS011;26493;51.938;7.626;2023-07-13T08:37:08;22.70;;;9.40;;
40781;SDS011;26493;51.938;7.626;2023-07-13T08:39:34;18.25;;;10.25;;
40781;SDS011;26493;51.938;7.626;2023-07-13T08:42:02;20.75;;;9.38;;
40781;SDS011;26493;51.938;7.626;2023-07-13T08:44:35;19.60;;;9.45;;
40781;SDS011;26493;51.938;7.626;2023-07-13T08:47:03;17.00;;;9.23;;
40781;SDS011;26493;51.938;7.626;2023-07-13T08:49:29;20.45;;;9.75;;
40781;SDS011;26493;51.938;7.626;2023-07-13T08:54:28;21.23;;;9.40;;
40781;SDS011;26493;51.938;7.626;2023-07-13T08:56:55;19.85;;;9.05;;
40781;SDS011;26493;51.938;7.626;2023-07-13T08:59:24;20.83;;;10.07;;
40781;SDS011;26493;51.938;7.626;2023-07-13T09:02:06;24.80;;;9.70;;
40781;SDS011;26493;51.938;7.626;2023-07-13T09:04:42;20.05;;;8.80;;
40781;SDS011;26493;51.938;7.626;2023-07-13T09:07:24;22.02;;;9.43;;
40781;SDS011;26493;51.938;7.626;2023-07-13T09:14:48;20.52;;;9.63;;
40781;SDS011;26493;51.938;7.626;2023-07-13T09:17:59;17.80;;;9.20;;
40781;SDS011;26493;51.938;7.626;2023-07-13T09:20:17;20.10;;;9.75;;
40781;SDS011;26493;51.938;7.626;2023-07-13T09:22:47;19.42;;;8.30;;
40781;SDS011;26493;51.938;7.626;2023-07-13T09:27:45;16.77;;;8.32;;
40781;SDS011;26493;51.938;7.626;2023-07-13T09:32:39;15.90;;;8.02;;
40781;SDS011;26493;51.938;7.626;2023-07-13T09:35:12;17.33;;;8.50;;
40781;SDS011;26493;51.938;7.626;2023-07-13T09:37:38;21.83;;;10.02;;
40781;SDS011;26493;51.938;7.626;2023-07-13T09:40:10;17.23;;;9.32;;
40781;SDS011;26493;51.938;7.626;2023-07-13T09:42:37;16.08;;;8.50;;
40781;SDS011;26493;51.938;7.626;2023-07-13T09:45:04;20.33;;;8.98;;
40781;SDS011;26493;51.938;7.626;2023-07-13T09:47:38;17.63;;;8.60;;
40781;SDS011;26493;51.938;7.626;2023-07-13T09:50:06;22.13;;;9.35;;
40781;SDS011;26493;51.938;7.626;2023-07-13T09:54:58;19.35;;;8.93;;
40781;SDS011;26493;51.938;7.626;2023-07-13T09:57:26;18.60;;;9.30;;
40781;SDS011;26493;51.938;7.626;2023-07-13T09:59:53;18.88;;;9.15;;
40781;SDS011;26493;51.938;7.626;2023-07-13T10:04:47;20.45;;;9.38;;
40781;SDS011;26493;51.938;7.626;2023-07-13T10:07:22;20.70;;;9.35;;
40781;SDS011;26493;51.938;7.626;2023-07-13T10:09:51;18.10;;;9.45;;
40781;SDS011;26493;51.938;7.626;2023-07-13T10:12:19;20.10;;;10.52;;
40781;SDS011;26493;51.938;7.626;2023-07-13T10:14:45;17.90;;;10.00;;
40781;SDS011;26493;51.938;7.626;2023-07-13T10:17:14;18.65;;;10.00;;
40781;SDS011;26493;51.938;7.626;2023-07-13T10:19:43;19.83;;;10.88;;
40781;SDS011;26493;51.938;7.626;2023-07-13T10:24:36;20.13;;;10.90;;
40781;SDS011;26493;51.938;7.626;2023-07-13T10:30:02;19.80;;;11.63;;
40781;SDS011;26493;51.938;7.626;2023-07-13T10:32:24;17.15;;;10.00;;
40781;SDS011;26493;51.938;7.626;2023-07-13T10:34:50;20.40;;;10.23;;
40781;SDS011;26493;51.938;7.626;2023-07-13T10:37:21;18.58;;;11.75;;
40781;SDS011;26493;51.938;7.626;2023-07-13T10:39:48;18.35;;;11.13;;
40781;SDS011;26493;51.938;7.626;2023-07-13T10:42:26;16.90;;;10.68;;
40781;SDS011;26493;51.938;7.626;2023-07-13T10:44:53;18.80;;;10.85;;
40781;SDS011;26493;51.938;7.626;2023-07-13T10:47:19;19.70;;;11.10;;
40781;SDS011;26493;51.938;7.626;2023-07-13T10:49:45;24.55;;;12.80;;
40781;SDS011;26493;51.938;7.626;2023-07-13T10:54:58;18.23;;;10.65;;
40781;SDS011;26493;51.938;7.626;2023-07-13T10:57:25;19.20;;;11.10;;
40781;SDS011;26493;51.938;7.626;2023-07-13T11:00:33;18.33;;;10.82;;
40781;SDS011;26493;51.938;7.626;2023-07-13T11:02:40;18.00;;;10.57;;
40781;SDS011;26493;51.938;7.626;2023-07-13T11:05:40;18.17;;;10.38;;
40781;SDS011;26493;51.938;7.626;2023-07-13T11:08:51;19.67;;;10.52;;
40781;SDS011;26493;51.938;7.626;2023-07-13T11:10:50;17.30;;;10.20;;
40781;SDS011;26493;51.938;7.626;2023-07-13T11:13:37;19.75;;;9.55;;
40781;SDS011;26493;51.938;7.626;2023-07-13T11:17:03;16.33;;;9.95;;
40781;SDS011;26493;51.938;7.626;2023-07-13T11:21:27;19.52;;;10.98;;
40781;SDS011;26493;51.938;7.626;2023-07-13T11:31:43;18.02;;;11.07;;
40781;SDS011;26493;51.938;7.626;2023-07-13T11:34:15;17.88;;;10.80;;
40781;SDS011;26493;51.938;7.626;2023-07-13T11:36:44;17.83;;;10.60;;
40781;SDS011;26493;51.938;7.626;2023-07-13T11:41:38;16.42;;;10.05;;
40781;SDS011;26493;51.938;7.626;2023-07-13T11:44:12;17.05;;;9.98;;
40781;SDS011;26493;51.938;7.626;2023-07-13T11:46:39;16.67;;;10.85;;
40781;SDS011;26493;51.938;7.626;2023-07-13T11:49:11;17.92;;;10.57;;
40781;SDS011;26493;51.938;7.626;2023-07-13T11:51:39;18.73;;;10.35;;
40781;SDS011;26493;51.938;7.626;2023-07-13T11:54:06;16.27;;;9.55;;
40781;SDS011;26493;51.938;7.626;2023-07-13T11:56:37;17.55;;;9.93;;
40781;SDS011;26493;51.938;7.626;2023-07-13T11:59:04;18.33;;;9.77;;
40781;SDS011;26493;51.938;7.626;2023-07-13T12:01:30;19.00;;;10.43;;
40781;SDS011;26493;51.938;7.626;2023-07-13T12:04:03;16.30;;;9.95;;
40781;SDS011;26493;51.938;7.626;2023-07-13T12:06:32;15.93;;;10.40;;
40781;SDS011;26493;51.938;7.626;2023-07-13T12:09:02;15.65;;;10.35;;
40781;SDS011;26493;51.938;7.626;2023-07-13T12:11:28;19.98;;;10.70;;
40781;SDS011;26493;51.938;7.626;2023-07-13T12:13:55;18.13;;;11.40;;
40781;SDS011;26493;51.938;7.626;2023-07-13T12:18:51;17.50;;;11.30;;
40781;SDS011;26493;51.938;7.626;2023-07-13T12:21:18;15.88;;;11.38;;
40781;SDS011;26493;51.938;7.626;2023-07-13T12:23:45;17.60;;;12.15;;
40781;SDS011;26493;51.938;7.626;2023-07-13T12:26:14;15.88;;;11.32;;
40781;SDS011;26493;51.938;7.626;2023-07-13T12:28:46;16.58;;;11.88;;
40781;SDS011;26493;51.938;7.626;2023-07-13T12:33:58;19.10;;;11.40;;
40781;SDS011;26493;51.938;7.626;2023-07-13T12:36:24;19.85;;;12.48;;
40781;SDS011;26493;51.938;7.626;2023-07-13T12:38:50;19.17;;;14.20;;
40781;SDS011;26493;51.938;7.626;2023-07-13T12:41:16;19.80;;;12.77;;
40781;SDS011;26493;51.938;7.626;2023-07-13T12:43:43;17.77;;;11.15;;
40781;SDS011;26493;51.938;7.626;2023-07-13T12:46:15;18.05;;;10.70;;
40781;SDS011;26493;51.938;7.626;2023-07-13T12:48:42;18.77;;;11.13;;
40781;SDS011;26493;51.938;7.626;2023-07-13T12:51:11;18.45;;;11.65;;
40781;SDS011;26493;51.938;7.626;2023-07-13T12:54:19;19.27;;;12.43;;
40781;SDS011;26493;51.938;7.626;2023-07-13T12:56:27;17.92;;;12.20;;
40781;SDS011;26493;51.938;7.626;2023-07-13T12:58:57;20.70;;;12.30;;
40781;SDS011;26493;51.938;7.626;2023-07-13T13:01:26;19.42;;;11.15;;
40781;SDS011;26493;51.938;7.626;2023-07-13T13:03:54;18.00;;;11.45;;
40781;SDS011;26493;51.938;7.626;2023-07-13T13:06:27;20.23;;;10.65;;
40781;SDS011;26493;51.938;7.626;2023-07-13T13:08:57;19.08;;;11.20;;
40781;SDS011;26493;51.938;7.626;2023-07-13T13:11:24;19.35;;;10.23;;
40781;SDS011;26493;51.938;7.626;2023-07-13T13:13:51;19.23;;;10.60;;
40781;SDS011;26493;51.938;7.626;2023-07-13T13:16:22;20.98;;;11.05;;
40781;SDS011;26493;51.938;7.626;2023-07-13T13:18:50;17.77;;;10.30;;
40781;SDS011;26493;51.938;7.626;2023-07-13T13:21:16;16.52;;;10.52;;
40781;SDS011;26493;51.938;7.626;2023-07-13T13:23:43;20.88;;;10.75;;
40781;SDS011;26493;51.938;7.626;2023-07-13T13:26:12;18.38;;;10.52;;
40781;SDS011;26493;51.938;7.626;2023-07-13T13:28:40;17.67;;;10.25;;
40781;SDS011;26493;51.938;7.626;2023-07-13T13:31:07;17.63;;;9.98;;
40781;SDS011;26493;51.938;7.626;2023-07-13T13:33:37;16.15;;;9.93;;
40781;SDS011;26493;51.938;7.626;2023-07-13T13:36:09;16.55;;;9.40;;
40781;SDS011;26493;51.938;7.626;2023-07-13T13:38:37;16.17;;;9.63;;
40781;SDS011;26493;51.938;7.626;2023-07-13T13:41:03;15.20;;;8.65;;
40781;SDS011;26493;51.938;7.626;2023-07-13T13:43:29;16.48;;;9.32;;
40781;SDS011;26493;51.938;7.626;2023-07-13T13:45:56;15.55;;;8.60;;
40781;SDS011;26493;51.938;7.626;2023-07-13T13:48:30;17.88;;;9.10;;
40781;SDS011;26493;51.938;7.626;2023-07-13T13:50:57;17.70;;;9.23;;
40781;SDS011;26493;51.938;7.626;2023-07-13T13:53:23;17.45;;;9.02;;
40781;SDS011;26493;51.938;7.626;2023-07-13T13:55:50;20.52;;;8.80;;
40781;SDS011;26493;51.938;7.626;2023-07-13T13:58:17;22.73;;;8.80;;
40781;SDS011;26493;51.938;7.626;2023-07-13T14:00:43;16.92;;;11.68;;
40781;SDS011;26493;51.938;7.626;2023-07-13T14:03:28;18.60;;;14.80;;
40781;SDS011;26493;51.938;7.626;2023-07-13T14:05:54;25.38;;;17.90;;
40781;SDS011;26493;51.938;7.626;2023-07-13T14:08:22;20.02;;;17.88;;
40781;SDS011;26493;51.938;7.626;2023-07-13T14:10:49;21.35;;;19.15;;
40781;SDS011;26493;51.938;7.626;2023-07-13T14:13:17;22.00;;;19.73;;
40781;SDS011;26493;51.938;7.626;2023-07-13T14:15:43;26.50;;;24.02;;
40781;SDS011;26493;51.938;7.626;2023-07-13T14:18:10;23.83;;;21.52;;
40781;SDS011;26493;51.938;7.626;2023-07-13T14:20:36;20.35;;;18.15;;
40781;SDS011;26493;51.938;7.626;2023-07-13T14:23:03;21.30;;;15.48;;
40781;SDS011;26493;51.938;7.626;2023-07-13T14:25:29;21.80;;;16.40;;
40781;SDS011;26493;51.938;7.626;2023-07-13T14:27:57;19.88;;;15.18;;
40781;SDS011;26493;51.938;7.626;2023-07-13T14:30:32;18.80;;;13.98;;
40781;SDS011;26493;51.938;7.626;2023-07-13T14:32:58;19.25;;;13.75;;
40781;SDS011;26493;51.938;7.626;2023-07-13T14:35:24;20.37;;;13.53;;
40781;SDS011;26493;51.938;7.626;2023-07-13T14:37:51;17.63;;;13.10;;
40781;SDS011;26493;51.938;7.626;2023-07-13T14:40:18;16.55;;;12.52;;
40781;SDS011;26493;51.938;7.626;2023-07-13T14:42:45;17.73;;;11.47;;
40781;SDS011;26493;51.938;7.626;2023-07-13T14:45:12;18.55;;;11.23;;
40781;SDS011;26493;51.938;7.626;2023-07-13T14:47:38;17.88;;;10.93;;
40781;SDS011;26493;51.938;7.626;2023-07-13T14:50:04;18.67;;;10.95;;
40781;SDS011;26493;51.938;7.626;2023-07-13T14:52:34;15.88;;;10.73;;
40781;SDS011;26493;51.938;7.626;2023-07-13T14:55:00;17.58;;;11.50;;
40781;SDS011;26493;51.938;7.626;2023-07-13T14:57:26;16.88;;;10.98;;
40781;SDS011;26493;51.938;7.626;2023-07-13T14:59:52;16.05;;;10.73;;
40781;SDS011;26493;51.938;7.626;2023-07-13T15:02:28;16.48;;;11.27;;
40781;SDS011;26493;51.938;7.626;2023-07-13T15:04:55;16.02;;;9.93;;
40781;SDS011;26493;51.938;7.626;2023-07-13T15:07:21;15.68;;;10.80;;
40781;SDS011;26493;51.938;7.626;2023-07-13T15:09:48;16.65;;;10.65;;
40781;SDS011;26493;51.938;7.626;2023-07-13T15:12:15;14.98;;;9.93;;
40781;SDS011;26493;51.938;7.626;2023-07-13T15:14:41;16.77;;;10.45;;
40781;SDS011;26493;51.938;7.626;2023-07-13T15:20:11;16.17;;;10.73;;
40781;SDS011;26493;51.938;7.626;2023-07-13T15:22:41;16.77;;;10.53;;
40781;SDS011;26493;51.938;7.626;2023-07-13T15:25:11;16.30;;;10.32;;